aviador You're here:

GMMW Decoded Metar

ARWI in MOROCCO
Report Time2017-08-18 23:00:00
UTC Time2017-08-18 23:50:51
Flight Rules vfr VFR
Wind080° at 05 kt
W.Decomp.*RWY 08: 5.0 kt HW 0.1 kt RCW
W.Rank080° ranks 18
Current wind is below 080° avg. (5.0)
Visibility9999 m
Phenomena:N/A
Clouds:N/A
Expected CloudBase > 2,000 ft AGL from Temp-Dew spread
CeilingNone
Temp23°C (ISA +9)
Dew Point18°C (74% RH)
QNH1016 hPa
Density Alt1,811 ft
Elevation574 ft
Report Wrong Elevation
Raw Report
GMMW 182300Z 08005KT CAVOK 23/18 Q1016 NOSIG=

Extra information for GMMW:More info

Metar Taf Metar & Taf Last 4 Metars F.Rules Stats Wind Profile Meteogram Temp Stats Airport Information Weather charts Add Link Nearby VenuesMetar ALERT Operation Metar Decoded Social comments